Terminal Aerodrome Forecast
Issued by NWS

Home | Current Version | Previous Version | Text Only | Print | Product List | Glossary On
Versions: 1 2 3 4 5 6 7 8 9 10 11 12 13 14 15 16 17 18 19 20 21 22 23 24 25 26 27 28 29 30 31 32 33 34 35 36 37 38 39 40
000
FTUS43 KDLH 080536
TAFHYR
TAF
KHYR 080536Z 0806/0906 19018G28KT P6SM OVC120 WS020/22049KT
     FM080900 22010G20KT P6SM OVC023
     FM081100 24007KT P6SM BKN008
     FM081300 26005KT 4SM BR BKN004
     FM081700 33004KT P6SM OVC006
     FM090200 05005KT P6SM OVC012=

USA.gov is the U.S. government's official web portal to all federal, state and local government web resources and services.